KATL

Hartsfield Jackson Atlanta International Airport

ICAO Code KATL
IATA Code ATL
Name Hartsfield Jackson Atlanta International Airport
Location Atlanta, Georgia, US
Elevation 1026 Feet / 312.7 Meters
Latitude 33.63669968
Longitude -84.42810059
METAR KATL 090852Z 32004KT 10SM FEW250 05/02 A3007 RMK AO2 SLP187 T00500022 51007
Extra information Display Charts and CFS
Display NOTAMS
Runway Length Width Surface Elevation
08L 9000 ft 150 ft CON 1015 ft
08R 10000 ft 150 ft CON 1024 ft
09L 11890 ft 150 ft CON 1019 ft
09R 9001 ft 150 ft CON 1026 ft
10 9000 ft 150 ft CON 1000 ft
26R 9000 ft 150 ft CON 990 ft
26L 10000 ft 150 ft CON 995 ft
27R 11890 ft 150 ft CON 978 ft
27L 9001 ft 150 ft CON 985 ft
28 9000 ft 150 ft CON 998 ft